sensor_id;sensor_type;location;lat;lon;timestamp;pressure;altitude;pressure_sealevel;temperature;humidity
47750;BME280;49810;48.160;10.812;2022-10-16T00:01:39;95267.03;;;11.82;88.97
47750;BME280;49810;48.160;10.812;2022-10-16T00:04:08;95265.72;;;11.85;89.01
47750;BME280;49810;48.160;10.812;2022-10-16T00:06:36;95267.03;;;11.82;88.77
47750;BME280;49810;48.160;10.812;2022-10-16T00:09:05;95269.44;;;11.84;89.23
47750;BME280;49810;48.160;10.812;2022-10-16T00:11:36;95262.25;;;11.84;88.81
47750;BME280;49810;48.160;10.812;2022-10-16T00:14:06;95273.16;;;11.88;89.01
47750;BME280;49810;48.160;10.812;2022-10-16T00:16:35;95271.88;;;11.90;89.02
47750;BME280;49810;48.160;10.812;2022-10-16T00:19:03;95279.53;;;11.92;89.15
47750;BME280;49810;48.160;10.812;2022-10-16T00:21:32;95272.44;;;11.97;88.57
47750;BME280;49810;48.160;10.812;2022-10-16T00:24:18;95266.63;;;11.95;88.49
47750;BME280;49810;48.160;10.812;2022-10-16T00:26:49;95270.28;;;11.94;88.55
47750;BME280;49810;48.160;10.812;2022-10-16T00:29:17;95272.16;;;11.94;88.84
47750;BME280;49810;48.160;10.812;2022-10-16T00:31:45;95266.56;;;11.90;89.09
47750;BME280;49810;48.160;10.812;2022-10-16T00:34:13;95271.56;;;11.87;88.87
47750;BME280;49810;48.160;10.812;2022-10-16T00:36:41;95276.38;;;11.90;89.14
47750;BME280;49810;48.160;10.812;2022-10-16T00:39:10;95280.81;;;11.84;89.01
47750;BME280;49810;48.160;10.812;2022-10-16T00:41:38;95281.88;;;11.83;89.25
47750;BME280;49810;48.160;10.812;2022-10-16T00:44:45;95271.22;;;11.78;89.61
47750;BME280;49810;48.160;10.812;2022-10-16T00:47:19;95263.16;;;11.63;89.56
47750;BME280;49810;48.160;10.812;2022-10-16T00:49:50;95273.47;;;11.65;89.61
47750;BME280;49810;48.160;10.812;2022-10-16T00:52:19;95277.09;;;11.59;89.64
47750;BME280;49810;48.160;10.812;2022-10-16T00:54:49;95282.34;;;11.54;89.92
47750;BME280;49810;48.160;10.812;2022-10-16T00:57:18;95282.28;;;11.49;90.18
47750;BME280;49810;48.160;10.812;2022-10-16T00:59:48;95270.84;;;11.43;90.54
47750;BME280;49810;48.160;10.812;2022-10-16T01:02:16;95269.72;;;11.39;90.43
47750;BME280;49810;48.160;10.812;2022-10-16T01:04:47;95275.88;;;11.45;90.31
47750;BME280;49810;48.160;10.812;2022-10-16T01:07:26;95275.66;;;11.46;90.75
47750;BME280;49810;48.160;10.812;2022-10-16T01:10:06;95274.59;;;11.47;90.46
47750;BME280;49810;48.160;10.812;2022-10-16T01:12:40;95284.94;;;11.49;90.36
47750;BME280;49810;48.160;10.812;2022-10-16T01:15:18;95289.19;;;11.50;90.59
47750;BME280;49810;48.160;10.812;2022-10-16T01:17:55;95288.94;;;11.51;90.64
47750;BME280;49810;48.160;10.812;2022-10-16T01:20:27;95282.28;;;11.49;90.45
47750;BME280;49810;48.160;10.812;2022-10-16T01:23:04;95283.28;;;11.43;90.73
47750;BME280;49810;48.160;10.812;2022-10-16T01:25:52;95278.72;;;11.38;90.65
47750;BME280;49810;48.160;10.812;2022-10-16T01:28:29;95278.50;;;11.40;90.58
47750;BME280;49810;48.160;10.812;2022-10-16T01:31:02;95272.94;;;11.41;90.83
47750;BME280;49810;48.160;10.812;2022-10-16T01:33:35;95280.66;;;11.43;90.66
47750;BME280;49810;48.160;10.812;2022-10-16T01:36:10;95282.78;;;11.46;90.50
47750;BME280;49810;48.160;10.812;2022-10-16T01:38:39;95282.03;;;11.50;90.78
47750;BME280;49810;48.160;10.812;2022-10-16T01:41:14;95278.09;;;11.53;90.54
47750;BME280;49810;48.160;10.812;2022-10-16T01:43:48;95278.88;;;11.53;90.50
47750;BME280;49810;48.160;10.812;2022-10-16T01:46:20;95269.34;;;11.52;90.13
47750;BME280;49810;48.160;10.812;2022-10-16T01:48:50;95271.13;;;11.47;89.95
47750;BME280;49810;48.160;10.812;2022-10-16T01:51:19;95261.84;;;11.44;90.22
47750;BME280;49810;48.160;10.812;2022-10-16T01:53:50;95272.13;;;11.41;90.40
47750;BME280;49810;48.160;10.812;2022-10-16T01:56:21;95290.06;;;11.34;90.38
47750;BME280;49810;48.160;10.812;2022-10-16T01:58:55;95285.69;;;11.23;90.77
47750;BME280;49810;48.160;10.812;2022-10-16T02:01:27;95286.69;;;11.17;90.66
47750;BME280;49810;48.160;10.812;2022-10-16T02:04:00;95285.34;;;11.14;91.20
47750;BME280;49810;48.160;10.812;2022-10-16T02:06:29;95285.03;;;11.10;91.10
47750;BME280;49810;48.160;10.812;2022-10-16T02:08:58;95291.53;;;11.03;91.42
47750;BME280;49810;48.160;10.812;2022-10-16T02:11:27;95280.13;;;10.98;91.55
47750;BME280;49810;48.160;10.812;2022-10-16T02:13:58;95278.78;;;10.95;91.61
47750;BME280;49810;48.160;10.812;2022-10-16T02:16:34;95270.50;;;10.91;91.67
47750;BME280;49810;48.160;10.812;2022-10-16T02:19:03;95280.66;;;10.99;92.11
47750;BME280;49810;48.160;10.812;2022-10-16T02:21:40;95260.38;;;11.05;91.73
47750;BME280;49810;48.160;10.812;2022-10-16T02:24:19;95271.53;;;11.12;91.71
47750;BME280;49810;48.160;10.812;2022-10-16T02:26:51;95265.22;;;11.13;91.54
47750;BME280;49810;48.160;10.812;2022-10-16T02:29:24;95262.31;;;11.14;91.63
47750;BME280;49810;48.160;10.812;2022-10-16T02:31:56;95274.00;;;11.18;91.39
47750;BME280;49810;48.160;10.812;2022-10-16T02:34:26;95273.38;;;11.33;91.30
47750;BME280;49810;48.160;10.812;2022-10-16T02:36:57;95271.97;;;11.74;89.96
47750;BME280;49810;48.160;10.812;2022-10-16T02:39:27;95274.66;;;11.79;89.06
47750;BME280;49810;48.160;10.812;2022-10-16T02:41:56;95283.09;;;12.02;88.12
47750;BME280;49810;48.160;10.812;2022-10-16T02:44:26;95290.91;;;11.87;88.23
47750;BME280;49810;48.160;10.812;2022-10-16T02:46:54;95284.72;;;11.77;88.88
47750;BME280;49810;48.160;10.812;2022-10-16T02:49:22;95287.22;;;11.88;89.17
47750;BME280;49810;48.160;10.812;2022-10-16T02:51:50;95288.75;;;11.84;89.02
47750;BME280;49810;48.160;10.812;2022-10-16T02:54:18;95281.25;;;11.76;89.04
47750;BME280;49810;48.160;10.812;2022-10-16T02:56:46;95286.31;;;11.78;89.23
47750;BME280;49810;48.160;10.812;2022-10-16T02:59:14;95287.41;;;11.82;89.70
47750;BME280;49810;48.160;10.812;2022-10-16T03:01:44;95284.31;;;11.90;89.01
47750;BME280;49810;48.160;10.812;2022-10-16T03:04:12;95276.13;;;11.91;89.21
47750;BME280;49810;48.160;10.812;2022-10-16T03:06:40;95278.81;;;11.96;88.80
47750;BME280;49810;48.160;10.812;2022-10-16T03:09:08;95284.78;;;12.13;88.68
47750;BME280;49810;48.160;10.812;2022-10-16T03:11:36;95287.44;;;12.13;88.32
47750;BME280;49810;48.160;10.812;2022-10-16T03:14:05;95293.75;;;12.12;88.37
47750;BME280;49810;48.160;10.812;2022-10-16T03:16:33;95292.44;;;12.10;88.10
47750;BME280;49810;48.160;10.812;2022-10-16T03:19:02;95283.69;;;12.09;88.48
47750;BME280;49810;48.160;10.812;2022-10-16T03:21:31;95286.09;;;12.11;88.53
47750;BME280;49810;48.160;10.812;2022-10-16T03:23:59;95280.56;;;12.17;88.03
47750;BME280;49810;48.160;10.812;2022-10-16T03:26:27;95289.63;;;12.26;87.72
47750;BME280;49810;48.160;10.812;2022-10-16T03:28:55;95284.91;;;12.28;87.88
47750;BME280;49810;48.160;10.812;2022-10-16T03:31:23;95290.72;;;12.30;87.64
47750;BME280;49810;48.160;10.812;2022-10-16T03:33:51;95300.59;;;12.35;87.47
47750;BME280;49810;48.160;10.812;2022-10-16T03:36:21;95285.75;;;12.34;86.80
47750;BME280;49810;48.160;10.812;2022-10-16T03:38:49;95279.34;;;12.30;87.30
47750;BME280;49810;48.160;10.812;2022-10-16T03:41:17;95272.13;;;12.25;87.68
47750;BME280;49810;48.160;10.812;2022-10-16T03:43:45;95273.44;;;12.23;87.54
47750;BME280;49810;48.160;10.812;2022-10-16T03:46:13;95268.66;;;12.20;88.13
47750;BME280;49810;48.160;10.812;2022-10-16T03:48:41;95269.94;;;12.17;88.47
47750;BME280;49810;48.160;10.812;2022-10-16T03:51:09;95269.66;;;12.14;88.56
47750;BME280;49810;48.160;10.812;2022-10-16T03:53:39;95286.63;;;12.13;88.78
47750;BME280;49810;48.160;10.812;2022-10-16T03:56:07;95300.34;;;12.36;88.10
47750;BME280;49810;48.160;10.812;2022-10-16T03:58:35;95307.28;;;12.42;87.42
47750;BME280;49810;48.160;10.812;2022-10-16T04:01:03;95303.03;;;12.41;86.86
47750;BME280;49810;48.160;10.812;2022-10-16T04:03:31;95300.09;;;12.38;87.29
47750;BME280;49810;48.160;10.812;2022-10-16T04:06:00;95300.81;;;12.28;87.36
47750;BME280;49810;48.160;10.812;2022-10-16T04:08:28;95299.66;;;12.19;88.15
47750;BME280;49810;48.160;10.812;2022-10-16T04:10:58;95295.69;;;12.17;88.19
47750;BME280;49810;48.160;10.812;2022-10-16T04:13:26;95284.50;;;12.15;88.22
47750;BME280;49810;48.160;10.812;2022-10-16T04:15:54;95280.28;;;12.14;88.45
47750;BME280;49810;48.160;10.812;2022-10-16T04:18:23;95278.63;;;12.08;88.55
47750;BME280;49810;48.160;10.812;2022-10-16T04:20:53;95279.38;;;12.03;88.58
47750;BME280;49810;48.160;10.812;2022-10-16T04:23:21;95284.88;;;11.97;88.87
47750;BME280;49810;48.160;10.812;2022-10-16T04:25:50;95284.06;;;11.91;88.79
47750;BME280;49810;48.160;10.812;2022-10-16T04:28:20;95281.91;;;11.88;88.88
47750;BME280;49810;48.160;10.812;2022-10-16T04:30:48;95281.56;;;11.80;89.54
47750;BME280;49810;48.160;10.812;2022-10-16T04:33:16;95291.84;;;11.76;89.47
47750;BME280;49810;48.160;10.812;2022-10-16T04:35:44;95291.81;;;11.71;89.96
47750;BME280;49810;48.160;10.812;2022-10-16T04:38:13;95286.47;;;11.66;90.26
47750;BME280;49810;48.160;10.812;2022-10-16T04:40:41;95294.94;;;11.63;89.80
47750;BME280;49810;48.160;10.812;2022-10-16T04:43:09;95307.75;;;11.55;90.45
47750;BME280;49810;48.160;10.812;2022-10-16T04:45:40;95310.06;;;11.68;90.35
47750;BME280;49810;48.160;10.812;2022-10-16T04:48:08;95304.88;;;11.56;90.18
47750;BME280;49810;48.160;10.812;2022-10-16T04:50:37;95298.72;;;11.51;90.51
47750;BME280;49810;48.160;10.812;2022-10-16T04:53:05;95302.06;;;11.41;90.63
47750;BME280;49810;48.160;10.812;2022-10-16T04:55:33;95304.09;;;11.34;91.04
47750;BME280;49810;48.160;10.812;2022-10-16T04:58:01;95319.75;;;11.36;90.85
47750;BME280;49810;48.160;10.812;2022-10-16T05:00:29;95324.56;;;11.39;91.23
47750;BME280;49810;48.160;10.812;2022-10-16T05:02:59;95323.19;;;11.36;91.31
47750;BME280;49810;48.160;10.812;2022-10-16T05:05:27;95313.09;;;11.33;91.39
47750;BME280;49810;48.160;10.812;2022-10-16T05:07:55;95316.03;;;11.37;91.13
47750;BME280;49810;48.160;10.812;2022-10-16T05:10:24;95312.34;;;11.38;91.17
47750;BME280;49810;48.160;10.812;2022-10-16T05:12:52;95323.72;;;11.38;91.33
47750;BME280;49810;48.160;10.812;2022-10-16T05:15:20;95329.09;;;11.43;91.25
47750;BME280;49810;48.160;10.812;2022-10-16T05:17:53;95333.84;;;11.41;90.81
47750;BME280;49810;48.160;10.812;2022-10-16T05:20:23;95322.19;;;11.42;91.16
47750;BME280;49810;48.160;10.812;2022-10-16T05:22:51;95321.94;;;11.44;90.97
47750;BME280;49810;48.160;10.812;2022-10-16T05:25:19;95326.69;;;11.42;90.70
47750;BME280;49810;48.160;10.812;2022-10-16T05:27:47;95326.91;;;11.40;90.88
47750;BME280;49810;48.160;10.812;2022-10-16T05:30:16;95329.56;;;11.40;91.09
47750;BME280;49810;48.160;10.812;2022-10-16T05:32:47;95333.03;;;11.41;90.94
47750;BME280;49810;48.160;10.812;2022-10-16T05:35:16;95335.13;;;11.39;91.15
47750;BME280;49810;48.160;10.812;2022-10-16T05:37:46;95336.72;;;11.40;90.73
47750;BME280;49810;48.160;10.812;2022-10-16T05:40:15;95334.94;;;11.45;90.68
47750;BME280;49810;48.160;10.812;2022-10-16T05:42:44;95333.84;;;11.41;90.73
47750;BME280;49810;48.160;10.812;2022-10-16T05:45:12;95335.13;;;11.39;90.46
47750;BME280;49810;48.160;10.812;2022-10-16T05:47:41;95337.97;;;11.32;90.59
47750;BME280;49810;48.160;10.812;2022-10-16T05:50:09;95331.00;;;11.26;91.19
47750;BME280;49810;48.160;10.812;2022-10-16T05:52:37;95338.94;;;11.26;91.07
47750;BME280;49810;48.160;10.812;2022-10-16T05:55:07;95340.75;;;11.21;90.94
47750;BME280;49810;48.160;10.812;2022-10-16T05:57:36;95351.88;;;11.23;91.01
47750;BME280;49810;48.160;10.812;2022-10-16T06:00:04;95350.50;;;11.20;91.07
47750;BME280;49810;48.160;10.812;2022-10-16T06:02:38;95349.78;;;11.25;91.32
47750;BME280;49810;48.160;10.812;2022-10-16T06:05:06;95353.22;;;11.25;91.34
47750;BME280;49810;48.160;10.812;2022-10-16T06:07:35;95352.97;;;11.27;90.92
47750;BME280;49810;48.160;10.812;2022-10-16T06:10:04;95352.25;;;11.31;91.06
47750;BME280;49810;48.160;10.812;2022-10-16T06:12:34;95349.41;;;11.38;91.02
47750;BME280;49810;48.160;10.812;2022-10-16T06:15:02;95350.06;;;11.50;90.13
47750;BME280;49810;48.160;10.812;2022-10-16T06:17:31;95358.25;;;11.48;89.75
47750;BME280;49810;48.160;10.812;2022-10-16T06:19:58;95376.50;;;11.45;89.90
47750;BME280;49810;48.160;10.812;2022-10-16T06:22:27;95376.50;;;11.45;89.99
47750;BME280;49810;48.160;10.812;2022-10-16T06:24:55;95380.44;;;11.42;90.38
47750;BME280;49810;48.160;10.812;2022-10-16T06:27:23;95379.38;;;11.43;90.64
47750;BME280;49810;48.160;10.812;2022-10-16T06:29:53;95382.03;;;11.43;90.34
47750;BME280;49810;48.160;10.812;2022-10-16T06:32:21;95383.69;;;11.49;90.37
47750;BME280;49810;48.160;10.812;2022-10-16T06:34:49;95385.38;;;11.55;89.83
47750;BME280;49810;48.160;10.812;2022-10-16T06:37:17;95399.25;;;11.62;89.92
47750;BME280;49810;48.160;10.812;2022-10-16T06:39:45;95394.56;;;11.69;89.53
47750;BME280;49810;48.160;10.812;2022-10-16T06:42:13;95389.63;;;11.78;89.20
47750;BME280;49810;48.160;10.812;2022-10-16T06:44:42;95398.13;;;11.80;88.72
47750;BME280;49810;48.160;10.812;2022-10-16T06:47:11;95401.56;;;12.02;88.35
47750;BME280;49810;48.160;10.812;2022-10-16T06:49:40;95387.41;;;12.18;88.24
47750;BME280;49810;48.160;10.812;2022-10-16T06:52:08;95408.09;;;12.47;87.80
47750;BME280;49810;48.160;10.812;2022-10-16T06:54:36;95408.03;;;12.74;87.21
47750;BME280;49810;48.160;10.812;2022-10-16T06:57:08;95408.25;;;12.99;85.72
47750;BME280;49810;48.160;10.812;2022-10-16T06:59:36;95409.16;;;13.14;85.15
47750;BME280;49810;48.160;10.812;2022-10-16T07:02:04;95416.13;;;13.25;84.63
47750;BME280;49810;48.160;10.812;2022-10-16T07:04:35;95417.75;;;13.26;83.72
47750;BME280;49810;48.160;10.812;2022-10-16T07:07:03;95425.16;;;13.24;83.37
47750;BME280;49810;48.160;10.812;2022-10-16T07:09:35;95423.41;;;13.45;83.36
47750;BME280;49810;48.160;10.812;2022-10-16T07:12:04;95425.19;;;13.91;82.16
47750;BME280;49810;48.160;10.812;2022-10-16T07:14:32;95428.81;;;14.21;80.44
47750;BME280;49810;48.160;10.812;2022-10-16T07:17:00;95420.84;;;14.61;79.36
47750;BME280;49810;48.160;10.812;2022-10-16T07:19:28;95421.69;;;14.92;78.24
47750;BME280;49810;48.160;10.812;2022-10-16T07:22:01;95426.47;;;15.15;77.42
47750;BME280;49810;48.160;10.812;2022-10-16T07:24:31;95425.38;;;15.21;77.08
47750;BME280;49810;48.160;10.812;2022-10-16T07:26:59;95420.03;;;15.41;76.90
47750;BME280;49810;48.160;10.812;2022-10-16T07:29:27;95425.09;;;15.27;77.29
47750;BME280;49810;48.160;10.812;2022-10-16T07:31:55;95424.25;;;15.62;77.06
47750;BME280;49810;48.160;10.812;2022-10-16T07:34:23;95430.09;;;15.64;76.41
47750;BME280;49810;48.160;10.812;2022-10-16T07:36:53;95433.56;;;15.64;76.17
47750;BME280;49810;48.160;10.812;2022-10-16T07:39:23;95439.72;;;15.55;76.37
47750;BME280;49810;48.160;10.812;2022-10-16T07:41:51;95442.31;;;15.85;75.97
47750;BME280;49810;48.160;10.812;2022-10-16T07:44:19;95451.44;;;15.69;75.70
47750;BME280;49810;48.160;10.812;2022-10-16T07:46:47;95451.94;;;15.71;75.42
47750;BME280;49810;48.160;10.812;2022-10-16T07:49:15;95455.09;;;15.88;75.26
47750;BME280;49810;48.160;10.812;2022-10-16T07:51:43;95439.03;;;16.03;74.75
47750;BME280;49810;48.160;10.812;2022-10-16T07:54:11;95449.66;;;16.13;75.24
47750;BME280;49810;48.160;10.812;2022-10-16T07:56:40;95450.31;;;16.38;74.62
47750;BME280;49810;48.160;10.812;2022-10-16T07:59:09;95447.84;;;16.57;74.68
47750;BME280;49810;48.160;10.812;2022-10-16T08:01:37;95446.50;;;16.59;74.00
47750;BME280;49810;48.160;10.812;2022-10-16T08:04:06;95451.81;;;16.98;72.86
47750;BME280;49810;48.160;10.812;2022-10-16T08:06:35;95457.75;;;17.23;72.26
47750;BME280;49810;48.160;10.812;2022-10-16T08:09:04;95452.34;;;17.62;71.29
47750;BME280;49810;48.160;10.812;2022-10-16T08:11:33;95451.88;;;17.78;69.85
47750;BME280;49810;48.160;10.812;2022-10-16T08:14:03;95457.47;;;18.05;69.05
47750;BME280;49810;48.160;10.812;2022-10-16T08:16:31;95455.78;;;17.91;68.49
47750;BME280;49810;48.160;10.812;2022-10-16T08:18:59;95456.88;;;18.32;67.77
47750;BME280;49810;48.160;10.812;2022-10-16T08:21:27;95466.13;;;18.44;67.37
47750;BME280;49810;48.160;10.812;2022-10-16T08:23:55;95479.38;;;18.31;68.54
47750;BME280;49810;48.160;10.812;2022-10-16T08:26:25;95478.09;;;18.05;68.67
47750;BME280;49810;48.160;10.812;2022-10-16T08:28:54;95476.66;;;18.36;68.95
47750;BME280;49810;48.160;10.812;2022-10-16T08:31:25;95464.53;;;18.62;66.91
47750;BME280;49810;48.160;10.812;2022-10-16T08:33:54;95465.41;;;18.57;65.99
47750;BME280;49810;48.160;10.812;2022-10-16T08:36:22;95468.22;;;18.47;66.66
47750;BME280;49810;48.160;10.812;2022-10-16T08:38:50;95467.59;;;18.32;67.01
47750;BME280;49810;48.160;10.812;2022-10-16T08:41:41;95469.72;;;18.11;68.25
47750;BME280;49810;48.160;10.812;2022-10-16T08:44:39;95480.19;;;18.08;65.88
47750;BME280;49810;48.160;10.812;2022-10-16T08:47:18;95476.88;;;17.92;66.51
47750;BME280;49810;48.160;10.812;2022-10-16T08:49:56;95479.84;;;18.14;65.62
47750;BME280;49810;48.160;10.812;2022-10-16T08:52:29;95485.78;;;18.35;65.53
47750;BME280;49810;48.160;10.812;2022-10-16T08:54:57;95483.50;;;18.47;64.83
47750;BME280;49810;48.160;10.812;2022-10-16T08:57:26;95485.38;;;18.65;64.25
47750;BME280;49810;48.160;10.812;2022-10-16T08:59:58;95494.88;;;18.76;64.79
47750;BME280;49810;48.160;10.812;2022-10-16T09:02:32;95492.47;;;19.11;63.63
47750;BME280;49810;48.160;10.812;2022-10-16T09:05:20;95498.84;;;18.97;64.75
47750;BME280;49810;48.160;10.812;2022-10-16T09:07:59;95494.69;;;19.41;64.29
47750;BME280;49810;48.160;10.812;2022-10-16T09:10:44;95497.06;;;19.75;61.33
47750;BME280;49810;48.160;10.812;2022-10-16T09:13:22;95503.06;;;19.86;60.81
47750;BME280;49810;48.160;10.812;2022-10-16T09:15:56;95503.56;;;20.01;60.49
47750;BME280;49810;48.160;10.812;2022-10-16T09:18:33;95501.69;;;20.02;61.27
47750;BME280;49810;48.160;10.812;2022-10-16T09:21:08;95497.44;;;20.28;60.46
47750;BME280;49810;48.160;10.812;2022-10-16T09:23:38;95501.56;;;20.74;59.40
47750;BME280;49810;48.160;10.812;2022-10-16T09:26:11;95506.22;;;20.96;59.11
47750;BME280;49810;48.160;10.812;2022-10-16T09:28:40;95502.50;;;20.70;59.78
47750;BME280;49810;48.160;10.812;2022-10-16T09:31:14;95498.22;;;20.55;61.98
47750;BME280;49810;48.160;10.812;2022-10-16T09:33:48;95502.34;;;20.88;60.95
47750;BME280;49810;48.160;10.812;2022-10-16T09:36:17;95512.03;;;20.76;60.11
47750;BME280;49810;48.160;10.812;2022-10-16T09:38:46;95504.06;;;21.42;58.80
47750;BME280;49810;48.160;10.812;2022-10-16T09:41:17;95509.41;;;21.77;57.24
47750;BME280;49810;48.160;10.812;2022-10-16T09:43:49;95513.66;;;21.70;57.94
47750;BME280;49810;48.160;10.812;2022-10-16T09:46:24;95524.25;;;21.97;56.00
47750;BME280;49810;48.160;10.812;2022-10-16T09:48:56;95524.13;;;21.36;58.17
47750;BME280;49810;48.160;10.812;2022-10-16T09:51:26;95520.53;;;22.15;56.71
47750;BME280;49810;48.160;10.812;2022-10-16T09:53:57;95520.78;;;22.35;56.14
47750;BME280;49810;48.160;10.812;2022-10-16T09:56:27;95523.69;;;22.47;55.48
47750;BME280;49810;48.160;10.812;2022-10-16T09:58:57;95523.47;;;22.35;54.74
47750;BME280;49810;48.160;10.812;2022-10-16T10:01:30;95526.63;;;21.98;54.49
47750;BME280;49810;48.160;10.812;2022-10-16T10:04:01;95526.97;;;21.75;55.29
47750;BME280;49810;48.160;10.812;2022-10-16T10:06:32;95529.09;;;21.86;55.98
47750;BME280;49810;48.160;10.812;2022-10-16T10:09:18;95541.31;;;21.48;56.93
47750;BME280;49810;48.160;10.812;2022-10-16T10:11:50;95548.16;;;21.32;58.27
47750;BME280;49810;48.160;10.812;2022-10-16T10:14:27;95544.13;;;21.43;57.31
47750;BME280;49810;48.160;10.812;2022-10-16T10:17:10;95540.53;;;21.48;57.24
47750;BME280;49810;48.160;10.812;2022-10-16T10:19:41;95536.06;;;21.43;59.13
47750;BME280;49810;48.160;10.812;2022-10-16T10:22:27;95531.13;;;21.81;56.68
47750;BME280;49810;48.160;10.812;2022-10-16T10:25:00;95538.25;;;22.38;55.58
47750;BME280;49810;48.160;10.812;2022-10-16T10:27:39;95534.03;;;22.54;54.27
47750;BME280;49810;48.160;10.812;2022-10-16T10:30:18;95529.50;;;22.32;56.00
47750;BME280;49810;48.160;10.812;2022-10-16T10:32:59;95525.78;;;23.32;51.58
47750;BME280;49810;48.160;10.812;2022-10-16T10:35:40;95527.38;;;23.58;50.43
47750;BME280;49810;48.160;10.812;2022-10-16T10:38:21;95530.72;;;23.47;50.88
47750;BME280;49810;48.160;10.812;2022-10-16T10:40:59;95520.66;;;23.05;51.73
47750;BME280;49810;48.160;10.812;2022-10-16T10:43:42;95528.38;;;22.72;51.73
47750;BME280;49810;48.160;10.812;2022-10-16T10:46:17;95532.16;;;22.71;50.62
47750;BME280;49810;48.160;10.812;2022-10-16T10:49:14;95527.47;;;22.94;49.31
47750;BME280;49810;48.160;10.812;2022-10-16T10:51:53;95536.72;;;23.18;48.42
47750;BME280;49810;48.160;10.812;2022-10-16T10:54:31;95535.19;;;24.23;46.49
47750;BME280;49810;48.160;10.812;2022-10-16T10:57:09;95535.63;;;23.28;47.68
47750;BME280;49810;48.160;10.812;2022-10-16T10:59:45;95523.06;;;23.91;47.27
47750;BME280;49810;48.160;10.812;2022-10-16T11:02:26;95525.41;;;23.84;47.99
47750;BME280;49810;48.160;10.812;2022-10-16T11:08:08;95518.22;;;24.89;44.49
47750;BME280;49810;48.160;10.812;2022-10-16T11:10:45;95524.63;;;25.34;43.51
47750;BME280;49810;48.160;10.812;2022-10-16T11:13:21;95519.00;;;25.39;42.02
47750;BME280;49810;48.160;10.812;2022-10-16T11:15:54;95516.16;;;25.35;42.50
47750;BME280;49810;48.160;10.812;2022-10-16T11:18:29;95523.19;;;25.07;43.20
47750;BME280;49810;48.160;10.812;2022-10-16T11:21:03;95526.81;;;25.11;44.09
47750;BME280;49810;48.160;10.812;2022-10-16T11:23:40;95532.38;;;24.57;44.33
47750;BME280;49810;48.160;10.812;2022-10-16T11:26:14;95528.84;;;24.27;45.16
47750;BME280;49810;48.160;10.812;2022-10-16T11:28:46;95526.66;;;24.04;46.08
47750;BME280;49810;48.160;10.812;2022-10-16T11:31:25;95533.06;;;23.91;46.81
47750;BME280;49810;48.160;10.812;2022-10-16T11:34:05;95513.50;;;23.94;45.17
47750;BME280;49810;48.160;10.812;2022-10-16T11:36:39;95519.09;;;23.63;46.69
47750;BME280;49810;48.160;10.812;2022-10-16T11:39:19;95516.88;;;23.23;48.37
47750;BME280;49810;48.160;10.812;2022-10-16T11:41:51;95510.81;;;23.94;46.42
47750;BME280;49810;48.160;10.812;2022-10-16T11:44:33;95514.41;;;24.06;44.85
47750;BME280;49810;48.160;10.812;2022-10-16T11:47:12;95502.00;;;26.03;40.82
47750;BME280;49810;48.160;10.812;2022-10-16T11:50:12;95503.63;;;27.13;38.88
47750;BME280;49810;48.160;10.812;2022-10-16T11:52:52;95505.44;;;27.88;36.42
47750;BME280;49810;48.160;10.812;2022-10-16T11:55:24;95502.19;;;28.87;34.97
47750;BME280;49810;48.160;10.812;2022-10-16T11:58:01;95502.78;;;29.12;33.43
47750;BME280;49810;48.160;10.812;2022-10-16T12:00:35;95503.78;;;29.76;32.58
47750;BME280;49810;48.160;10.812;2022-10-16T12:03:08;95506.06;;;29.93;31.67
47750;BME280;49810;48.160;10.812;2022-10-16T12:05:54;95510.31;;;27.27;36.96
47750;BME280;49810;48.160;10.812;2022-10-16T12:08:23;95508.47;;;28.41;35.29
47750;BME280;49810;48.160;10.812;2022-10-16T12:10:52;95510.75;;;28.55;35.97
47750;BME280;49810;48.160;10.812;2022-10-16T12:13:30;95509.41;;;29.11;34.58
47750;BME280;49810;48.160;10.812;2022-10-16T12:16:20;95502.16;;;29.18;34.34
47750;BME280;49810;48.160;10.812;2022-10-16T12:18:49;95491.75;;;30.38;31.05
47750;BME280;49810;48.160;10.812;2022-10-16T12:21:17;95504.84;;;28.84;33.88
47750;BME280;49810;48.160;10.812;2022-10-16T12:23:49;95490.47;;;30.54;30.33
47750;BME280;49810;48.160;10.812;2022-10-16T12:26:26;95498.97;;;29.51;32.45
47750;BME280;49810;48.160;10.812;2022-10-16T12:29:08;95493.09;;;29.87;32.56
47750;BME280;49810;48.160;10.812;2022-10-16T12:31:41;95483.78;;;32.22;29.06
47750;BME280;49810;48.160;10.812;2022-10-16T12:34:27;95490.72;;;31.20;29.68
47750;BME280;49810;48.160;10.812;2022-10-16T12:37:08;95485.81;;;32.68;27.69
47750;BME280;49810;48.160;10.812;2022-10-16T12:39:37;95483.34;;;31.80;29.15
47750;BME280;49810;48.160;10.812;2022-10-16T12:42:21;95491.50;;;32.09;26.81
47750;BME280;49810;48.160;10.812;2022-10-16T12:44:50;95489.72;;;29.74;30.26
47750;BME280;49810;48.160;10.812;2022-10-16T12:47:21;95482.44;;;30.87;29.28
47750;BME280;49810;48.160;10.812;2022-10-16T12:49:51;95483.59;;;30.41;29.25
47750;BME280;49810;48.160;10.812;2022-10-16T12:52:28;95485.44;;;30.34;29.29
47750;BME280;49810;48.160;10.812;2022-10-16T12:54:57;95494.38;;;30.34;31.11
47750;BME280;49810;48.160;10.812;2022-10-16T12:57:41;95490.94;;;33.24;24.97
47750;BME280;49810;48.160;10.812;2022-10-16T13:00:19;95486.69;;;32.36;25.80
47750;BME280;49810;48.160;10.812;2022-10-16T13:03:24;95503.88;;;33.95;23.53
47750;BME280;49810;48.160;10.812;2022-10-16T13:06:04;95505.13;;;32.79;24.21
47750;BME280;49810;48.160;10.812;2022-10-16T13:08:50;95504.41;;;33.46;23.91
47750;BME280;49810;48.160;10.812;2022-10-16T13:11:27;95505.16;;;32.42;23.94
47750;BME280;49810;48.160;10.812;2022-10-16T13:14:19;95514.19;;;31.21;25.73
47750;BME280;49810;48.160;10.812;2022-10-16T13:16:54;95505.16;;;32.46;24.88
47750;BME280;49810;48.160;10.812;2022-10-16T13:19:31;95500.03;;;32.41;24.50